Time;durP1;ratioP1;P1;durP2;ratioP2;P2;SDS_P1;SDS_P2;PMS_P1;PMS_P2;Temp;Humidity;BMP_temperature;BMP_pressure;BME280_temperature;BME280_humidity;BME280_pressure;Samples;Min_cycle;Max_cycle;Signal;HPM_P1;HPM_P2
2023/06/24 00:00:11;;;;;;;6.10;3.23;;;21.10;1.00;;;;;;5040856;28;20197;-60
2023/06/24 00:02:41;;;;;;;4.53;4.10;;;21.00;99.90;;;;;;5039880;28;20200;-60
2023/06/24 00:05:08;;;;;;;4.60;3.70;;;21.10;99.90;;;;;;5039169;28;20562;-60
2023/06/24 00:07:43;;;;;;;4.77;3.30;;;21.20;99.90;;;;;;5040443;28;20196;-60
2023/06/24 00:10:12;;;;;;;3.83;3.00;;;21.10;99.90;;;;;;5040971;28;20570;-61
2023/06/24 00:12:41;;;;;;;2.90;2.60;;;21.10;99.90;;;;;;5038640;28;20225;-61
2023/06/24 00:15:11;;;;;;;2.93;2.10;;;21.10;1.00;;;;;;5021774;28;20213;-61
2023/06/24 00:17:38;;;;;;;2.50;2.23;;;21.10;1.00;;;;;;5039732;28;20226;-61
2023/06/24 00:20:11;;;;;;;3.57;2.40;;;21.10;1.00;;;;;;5036936;28;20232;-63
2023/06/24 00:22:48;;;;;;;3.87;2.50;;;21.10;1.00;;;;;;5038853;28;20730;-62
2023/06/24 00:25:15;;;;;;;3.70;2.00;;;21.20;1.00;;;;;;5038840;28;20299;-61
2023/06/24 00:27:43;;;;;;;2.90;2.17;;;21.20;1.00;;;;;;5037591;28;20236;-60
2023/06/24 00:30:10;;;;;;;2.43;2.20;;;21.30;1.00;;;;;;5039631;28;20195;-60
2023/06/24 00:32:37;;;;;;;2.10;1.90;;;21.30;1.00;;;;;;5029841;28;20817;-60
2023/06/24 00:35:04;;;;;;;1.90;1.77;;;21.30;1.00;;;;;;5020811;28;20877;-60
2023/06/24 00:37:31;;;;;;;2.47;1.80;;;21.20;1.00;;;;;;5027278;28;21026;-60
2023/06/24 00:39:58;;;;;;;1.77;1.63;;;21.20;1.00;;;;;;5038147;28;20256;-60
2023/06/24 00:42:25;;;;;;;2.40;1.90;;;21.20;1.00;;;;;;5021200;28;20649;-60
2023/06/24 00:44:52;;;;;;;2.37;1.93;;;21.30;1.00;;;;;;5038458;28;20212;-60
2023/06/24 00:47:19;;;;;;;2.33;1.90;;;21.10;1.00;;;;;;5041183;28;20616;-60
2023/06/24 00:49:45;;;;;;;2.67;1.87;;;21.10;1.00;;;;;;5025955;28;20200;-60
2023/06/24 00:52:15;;;;;;;3.60;1.80;;;21.20;1.00;;;;;;5043154;28;20206;-58
2023/06/24 00:54:43;;;;;;;2.00;1.60;;;21.20;1.00;;;;;;5038109;28;20208;-58
2023/06/24 00:57:11;;;;;;;2.73;1.90;;;21.20;1.00;;;;;;5042962;28;20219;-58
2023/06/24 00:59:38;;;;;;;2.80;1.97;;;21.10;1.00;;;;;;5042925;28;20836;-60
2023/06/24 01:02:05;;;;;;;3.30;1.93;;;21.10;1.00;;;;;;5040585;28;20208;-61
2023/06/24 01:04:33;;;;;;;2.27;1.83;;;21.10;1.00;;;;;;5042431;28;20196;-59
2023/06/24 01:07:01;;;;;;;2.43;1.90;;;21.10;1.00;;;;;;5040789;28;20249;-59
2023/06/24 01:09:28;;;;;;;3.27;2.13;;;21.10;1.00;;;;;;5043340;28;20284;-61
2023/06/24 01:11:56;;;;;;;1.90;1.53;;;21.00;1.00;;;;;;5041604;28;20203;-59
2023/06/24 01:14:23;;;;;;;3.10;1.87;;;21.10;1.00;;;;;;5031910;28;20203;-58
2023/06/24 01:17:03;;;;;;;3.07;2.10;;;20.90;1.00;;;;;;5042769;28;20291;-59
2023/06/24 01:20:04;;;;;;;2.33;1.67;;;20.90;1.00;;;;;;5043426;28;20738;-59
2023/06/24 01:22:41;;;;;;;2.10;1.90;;;20.70;1.00;;;;;;5038222;28;20217;-59
2023/06/24 01:25:30;;;;;;;3.23;2.17;;;20.80;1.00;;;;;;5043598;28;20270;-59
2023/06/24 01:28:35;;;;;;;3.60;1.90;;;20.60;1.00;;;;;;5041434;28;20770;-59
2023/06/24 01:31:30;;;;;;;2.60;1.93;;;20.40;1.00;;;;;;5039850;28;20196;-59
2023/06/24 01:34:21;;;;;;;4.17;2.17;;;20.40;1.00;;;;;;5039588;28;20219;-59
2023/06/24 01:37:14;;;;;;;4.40;2.07;;;20.20;1.00;;;;;;5039584;28;20668;-58
2023/06/24 01:39:50;;;;;;;3.30;2.10;;;20.10;99.90;;;;;;5038853;28;20215;-58
2023/06/24 01:42:21;;;;;;;2.37;1.93;;;20.10;99.90;;;;;;5043441;28;20204;-59
2023/06/24 01:44:49;;;;;;;3.40;2.50;;;20.00;1.00;;;;;;5041860;28;20238;-60
2023/06/24 01:47:21;;;;;;;3.77;2.07;;;19.90;1.00;;;;;;5042052;28;20227;-58
2023/06/24 01:49:52;;;;;;;3.57;2.40;;;19.70;1.00;;;;;;5024469;28;20203;-59
2023/06/24 01:52:23;;;;;;;2.47;2.23;;;19.80;1.00;;;;;;5026655;28;20290;-59
2023/06/24 01:54:51;;;;;;;2.53;2.33;;;19.80;99.90;;;;;;5041342;28;20204;-60
2023/06/24 01:57:20;;;;;;;2.80;2.30;;;19.80;99.90;;;;;;5040793;28;20653;-61
2023/06/24 01:59:49;;;;;;;3.47;2.53;;;19.60;1.00;;;;;;5043282;28;20574;-59
2023/06/24 02:02:20;;;;;;;2.70;2.40;;;19.40;1.00;;;;;;5042576;28;20208;-60
2023/06/24 02:04:49;;;;;;;4.87;2.90;;;19.40;99.90;;;;;;5041053;28;20261;-60
2023/06/24 02:07:18;;;;;;;2.80;2.50;;;19.40;32.40;;;;;;5039183;28;20691;-59
2023/06/24 02:09:46;;;;;;;5.03;3.00;;;19.40;20.30;;;;;;5040727;28;20275;-59
2023/06/24 02:12:13;;;;;;;3.47;2.53;;;19.40;48.60;;;;;;5039797;28;20278;-58
2023/06/24 02:14:41;;;;;;;4.00;3.23;;;19.50;24.00;;;;;;5035393;28;20197;-60
2023/06/24 02:17:11;;;;;;;3.90;2.70;;;19.50;1.00;;;;;;5042922;28;20617;-59
2023/06/24 02:19:39;;;;;;;3.83;2.93;;;19.40;1.00;;;;;;5040951;28;20277;-58
2023/06/24 02:22:09;;;;;;;6.10;2.90;;;19.40;99.90;;;;;;5039096;28;20670;-61
2023/06/24 02:24:38;;;;;;;3.43;2.87;;;19.40;99.90;;;;;;5024047;28;20204;-60
2023/06/24 02:27:07;;;;;;;4.10;3.20;;;19.30;99.90;;;;;;5022804;28;20232;-60
2023/06/24 02:29:35;;;;;;;9.97;3.80;;;19.10;99.90;;;;;;5041977;28;20557;-60
2023/06/24 02:32:03;;;;;;;2.77;2.53;;;19.10;1.00;;;;;;5040790;28;20204;-59
2023/06/24 02:34:30;;;;;;;4.63;2.70;;;19.10;1.00;;;;;;5040537;28;20606;-58
2023/06/24 02:36:57;;;;;;;5.40;2.47;;;19.10;1.00;;;;;;5037901;28;20250;-61
2023/06/24 02:39:24;;;;;;;5.53;3.00;;;19.10;1.00;;;;;;5042890;28;20555;-59
2023/06/24 02:41:51;;;;;;;4.20;3.20;;;19.10;1.00;;;;;;5041842;28;20219;-59
2023/06/24 02:44:18;;;;;;;3.97;2.80;;;19.00;1.00;;;;;;5022541;28;20215;-58
2023/06/24 02:46:46;;;;;;;4.97;3.67;;;19.00;1.00;;;;;;5039691;28;20217;-60
2023/06/24 02:49:17;;;;;;;4.43;3.03;;;19.00;1.00;;;;;;5041573;28;20668;-58
2023/06/24 02:51:45;;;;;;;5.10;3.30;;;19.00;8.80;;;;;;5039351;28;20203;-58
2023/06/24 02:54:13;;;;;;;3.40;3.03;;;19.00;47.00;;;;;;5039276;28;20296;-59
2023/06/24 02:56:41;;;;;;;4.30;3.20;;;18.90;1.00;;;;;;5040443;28;20203;-61
2023/06/24 02:59:09;;;;;;;4.10;3.70;;;18.90;1.00;;;;;;5039315;28;20212;-58
2023/06/24 03:01:38;;;;;;;4.00;3.60;;;18.80;1.00;;;;;;5040155;28;20208;-58
2023/06/24 03:04:06;;;;;;;4.63;3.73;;;18.70;99.90;;;;;;5040380;28;20212;-59
2023/06/24 03:06:36;;;;;;;5.30;3.70;;;18.70;1.00;;;;;;5041663;28;20223;-57
2023/06/24 03:09:03;;;;;;;4.33;3.93;;;18.60;1.00;;;;;;5039542;28;20297;-57
2023/06/24 03:11:30;;;;;;;5.57;3.93;;;18.50;1.00;;;;;;5039858;28;20200;-60
2023/06/24 03:13:57;;;;;;;5.03;3.87;;;18.40;99.90;;;;;;5038905;28;20203;-59
2023/06/24 03:16:25;;;;;;;4.50;3.27;;;18.40;99.90;;;;;;5020493;28;20332;-60
2023/06/24 03:18:51;;;;;;;5.20;4.00;;;18.60;99.90;;;;;;5040505;28;20228;-59
2023/06/24 03:21:18;;;;;;;5.23;4.10;;;18.60;99.90;;;;;;5039491;28;20203;-59
2023/06/24 03:23:45;;;;;;;4.03;3.40;;;18.50;99.90;;;;;;5037277;28;20212;-59
2023/06/24 03:26:12;;;;;;;5.03;4.20;;;18.50;99.90;;;;;;5040636;28;20216;-60
2023/06/24 03:28:39;;;;;;;4.53;3.57;;;18.50;1.00;;;;;;5039203;28;20321;-59
2023/06/24 03:31:06;;;;;;;4.60;3.70;;;18.50;1.00;;;;;;5039157;28;20819;-59
2023/06/24 03:33:33;;;;;;;4.70;3.37;;;18.60;1.00;;;;;;5033088;28;20223;-59
2023/06/24 03:36:00;;;;;;;4.53;3.63;;;18.50;1.00;;;;;;5040323;28;20200;-58
2023/06/24 03:38:27;;;;;;;4.17;3.77;;;18.50;1.00;;;;;;5020233;28;20650;-59
2023/06/24 03:40:54;;;;;;;4.83;4.20;;;18.50;1.00;;;;;;5040748;28;20196;-59
2023/06/24 03:43:21;;;;;;;4.70;4.03;;;18.30;1.00;;;;;;5039376;28;20671;-59
2023/06/24 03:45:48;;;;;;;6.40;3.87;;;18.40;1.00;;;;;;5039985;28;20196;-60
2023/06/24 03:48:15;;;;;;;4.47;4.07;;;18.40;1.00;;;;;;5038388;28;20226;-59
2023/06/24 03:50:42;;;;;;;5.77;4.00;;;18.40;1.00;;;;;;5039314;28;20202;-59
2023/06/24 03:53:09;;;;;;;3.93;3.50;;;18.40;1.00;;;;;;5037820;28;20196;-59
2023/06/24 03:55:36;;;;;;;4.17;3.77;;;18.30;99.90;;;;;;5039858;28;20200;-59
2023/06/24 03:58:03;;;;;;;5.20;4.00;;;18.30;99.90;;;;;;5039631;28;20211;-59
2023/06/24 04:00:30;;;;;;;5.90;4.00;;;18.20;1.00;;;;;;5039170;28;20651;-59
2023/06/24 04:03:00;;;;;;;4.83;4.27;;;18.30;1.00;;;;;;5022694;28;20205;-59
2023/06/24 04:05:28;;;;;;;6.43;4.47;;;18.20;99.90;;;;;;5038682;28;20204;-59
2023/06/24 04:07:55;;;;;;;4.67;4.03;;;18.20;1.00;;;;;;5038630;28;20216;-59
2023/06/24 04:10:22;;;;;;;4.43;3.80;;;18.30;99.90;;;;;;5039132;28;20724;-58
2023/06/24 04:12:49;;;;;;;5.90;4.80;;;18.30;99.90;;;;;;5021726;28;20246;-59
2023/06/24 04:15:16;;;;;;;6.73;4.40;;;18.30;99.90;;;;;;5040445;28;20196;-59
2023/06/24 04:17:43;;;;;;;7.27;4.60;;;18.30;1.00;;;;;;5021641;28;20239;-59
2023/06/24 04:20:10;;;;;;;5.13;4.63;;;18.40;1.00;;;;;;5037999;28;20240;-59
2023/06/24 04:22:39;;;;;;;6.30;4.27;;;18.40;1.00;;;;;;5021055;28;20641;-61
2023/06/24 04:25:06;;;;;;;6.80;4.47;;;18.40;1.00;;;;;;5043401;28;20204;-61
2023/06/24 04:27:34;;;;;;;5.40;4.27;;;18.50;1.00;;;;;;5026767;28;20305;-60
2023/06/24 04:30:02;;;;;;;5.57;5.07;;;18.50;99.90;;;;;;5026972;28;20197;-60
2023/06/24 04:32:29;;;;;;;9.07;5.67;;;18.50;1.00;;;;;;5043841;28;20196;-61
2023/06/24 04:34:56;;;;;;;9.07;5.90;;;18.50;1.00;;;;;;5043007;28;20287;-61
2023/06/24 04:37:22;;;;;;;6.20;5.33;;;18.50;99.90;;;;;;5042114;28;20302;-61
2023/06/24 04:39:49;;;;;;;9.30;5.27;;;18.60;99.90;;;;;;5042310;28;20197;-61
2023/06/24 04:42:16;;;;;;;7.13;5.73;;;18.70;1.00;;;;;;5025522;28;20201;-61
2023/06/24 04:44:43;;;;;;;9.23;5.60;;;18.70;75.20;;;;;;5041977;28;20210;-61
2023/06/24 04:47:11;;;;;;;8.30;5.67;;;18.70;1.00;;;;;;5042960;28;20219;-62
2023/06/24 04:49:38;;;;;;;7.20;5.47;;;18.70;1.00;;;;;;5043329;28;20381;-61
2023/06/24 04:52:06;;;;;;;8.50;5.93;;;18.70;1.00;;;;;;5042076;28;20644;-62
2023/06/24 04:54:33;;;;;;;7.97;6.07;;;18.70;1.00;;;;;;5040536;28;20678;-60
2023/06/24 04:57:00;;;;;;;6.13;5.50;;;18.70;73.70;;;;;;5032541;28;20277;-63
2023/06/24 04:59:27;;;;;;;6.97;6.27;;;18.80;1.00;;;;;;5024462;28;20217;-62
2023/06/24 05:01:54;;;;;;;9.90;6.80;;;18.90;99.90;;;;;;5039150;28;20200;-61
2023/06/24 05:04:20;;;;;;;8.47;6.33;;;18.90;99.90;;;;;;5043763;28;20222;-61
2023/06/24 05:06:47;;;;;;;8.13;6.33;;;18.90;1.00;;;;;;5043234;28;20243;-61
2023/06/24 05:09:14;;;;;;;9.53;6.97;;;18.80;1.00;;;;;;5043002;28;20201;-62
2023/06/24 05:11:41;;;;;;;7.07;6.13;;;18.90;1.00;;;;;;5041996;28;20196;-63
2023/06/24 05:14:08;;;;;;;8.93;7.00;;;19.10;1.00;;;;;;5042933;28;20292;-61
2023/06/24 05:16:35;;;;;;;7.93;6.23;;;19.20;1.00;;;;;;5026376;28;20637;-62
2023/06/24 05:19:02;;;;;;;8.13;6.87;;;19.30;99.90;;;;;;5042587;28;20224;-62
2023/06/24 05:21:29;;;;;;;9.30;7.17;;;19.30;99.90;;;;;;5041533;28;20200;-63
2023/06/24 05:23:56;;;;;;;8.00;6.77;;;19.40;99.90;;;;;;5041050;28;20200;-63
2023/06/24 05:26:23;;;;;;;10.73;6.77;;;19.30;1.00;;;;;;5042033;28;20200;-63
2023/06/24 05:28:49;;;;;;;8.17;6.50;;;19.50;99.90;;;;;;5041060;28;20239;-62
2023/06/24 05:31:16;;;;;;;7.63;6.70;;;19.60;1.00;;;;;;5041976;28;20207;-61
2023/06/24 05:33:43;;;;;;;10.53;7.97;;;19.80;99.90;;;;;;5040543;28;20193;-60
2023/06/24 05:36:10;;;;;;;10.80;7.43;;;19.50;99.90;;;;;;5024059;28;20648;-60
2023/06/24 05:38:37;;;;;;;12.43;8.23;;;19.40;99.90;;;;;;5042032;28;20208;-60
2023/06/24 05:41:04;;;;;;;13.27;8.67;;;19.30;99.90;;;;;;5040624;28;20215;-60
2023/06/24 05:43:31;;;;;;;11.77;8.87;;;19.30;99.90;;;;;;5041522;28;20204;-60
2023/06/24 05:45:58;;;;;;;10.63;8.37;;;19.40;99.90;;;;;;5041026;28;20689;-60
2023/06/24 05:48:24;;;;;;;12.20;8.60;;;19.40;1.00;;;;;;5040460;28;20265;-61
2023/06/24 05:50:51;;;;;;;10.57;8.73;;;19.50;99.90;;;;;;5041518;28;20561;-60
2023/06/24 05:53:18;;;;;;;11.53;8.00;;;19.40;1.00;;;;;;5040019;28;20612;-61
2023/06/24 05:55:45;;;;;;;10.27;8.70;;;19.30;1.00;;;;;;5041010;28;20235;-60
2023/06/24 05:58:12;;;;;;;11.07;7.83;;;19.30;99.90;;;;;;5042648;28;20303;-60
2023/06/24 06:00:39;;;;;;;10.57;7.70;;;19.40;99.90;;;;;;5014227;28;20262;-63
2023/06/24 06:03:06;;;;;;;13.97;8.67;;;19.60;99.90;;;;;;5039951;28;20307;-59
2023/06/24 06:05:33;;;;;;;11.00;8.70;;;19.90;99.90;;;;;;5005190;28;20204;-59
2023/06/24 06:08:00;;;;;;;14.47;9.27;;;20.00;99.90;;;;;;5037007;28;20216;-59
2023/06/24 06:10:27;;;;;;;10.77;8.60;;;19.90;99.80;;;;;;5040975;28;20197;-59
2023/06/24 06:12:55;;;;;;;11.07;8.73;;;19.90;73.00;;;;;;5036373;28;20553;-61
2023/06/24 06:15:22;;;;;;;12.53;8.57;;;19.80;99.90;;;;;;5040814;28;20265;-60
2023/06/24 06:17:49;;;;;;;11.80;8.93;;;19.90;99.90;;;;;;5023395;28;20204;-59
2023/06/24 06:20:16;;;;;;;11.43;8.50;;;20.00;1.00;;;;;;5037453;28;20558;-62
2023/06/24 06:22:43;;;;;;;11.60;8.57;;;20.10;1.00;;;;;;5014671;28;20365;-60
2023/06/24 06:25:10;;;;;;;12.95;8.85;;;20.10;1.00;;;;;;4669506;28;10001312;-59
2023/06/24 06:27:37;;;;;;;10.77;8.13;;;20.40;1.00;;;;;;5024443;28;20236;-60
2023/06/24 06:30:04;;;;;;;13.67;9.10;;;20.50;1.00;;;;;;5029969;28;20201;-59
2023/06/24 06:32:31;;;;;;;12.63;9.27;;;20.70;1.00;;;;;;5032777;28;20340;-63
2023/06/24 06:34:58;;;;;;;10.20;7.47;;;20.50;1.00;;;;;;5027830;28;20226;-59
2023/06/24 06:37:25;;;;;;;10.07;7.57;;;20.50;1.00;;;;;;5013361;28;20239;-59
2023/06/24 06:39:52;;;;;;;10.37;7.50;;;20.80;1.00;;;;;;5039894;28;20200;-59
2023/06/24 06:42:19;;;;;;;10.80;7.83;;;20.90;1.00;;;;;;5039770;28;20569;-67
2023/06/24 06:44:46;;;;;;;8.43;7.10;;;20.90;99.90;;;;;;5021012;28;21168;-60
2023/06/24 06:47:13;;;;;;;10.83;7.13;;;20.90;99.90;;;;;;5042253;28;20226;-58
2023/06/24 06:49:40;;;;;;;7.97;6.27;;;21.10;99.90;;;;;;5041562;28;20211;-57
2023/06/24 06:52:07;;;;;;;9.23;6.73;;;21.50;99.90;;;;;;5038567;28;20243;-58
2023/06/24 06:54:34;;;;;;;8.80;7.33;;;21.60;1.00;;;;;;5032543;28;20199;-57
2023/06/24 06:57:03;;;;;;;9.40;6.40;;;21.60;1.00;;;;;;5033775;28;20239;-56
2023/06/24 06:59:33;;;;;;;9.70;6.87;;;21.70;1.00;;;;;;5036282;28;20340;-57
2023/06/24 07:02:00;;;;;;;9.17;5.80;;;21.80;1.00;;;;;;5036607;28;20760;-58
2023/06/24 07:04:27;;;;;;;8.67;6.03;;;22.00;1.00;;;;;;5036175;28;20203;-59
2023/06/24 07:06:54;;;;;;;7.23;5.40;;;22.00;1.00;;;;;;5005401;28;20211;-59
2023/06/24 07:09:21;;;;;;;7.93;5.50;;;22.20;1.00;;;;;;5040245;28;20298;-58
2023/06/24 07:11:48;;;;;;;9.10;5.67;;;22.20;1.00;;;;;;5022704;28;20565;-57
2023/06/24 07:14:15;;;;;;;7.77;5.60;;;22.10;1.00;;;;;;5039302;28;20261;-57
2023/06/24 07:16:41;;;;;;;7.67;5.30;;;22.40;1.00;;;;;;5040574;28;20196;-59
2023/06/24 07:19:08;;;;;;;9.07;5.63;;;22.40;1.00;;;;;;5037939;28;20235;-57
2023/06/24 07:21:35;;;;;;;9.70;6.30;;;22.50;1.00;;;;;;5039575;28;20755;-57
2023/06/24 07:24:02;;;;;;;9.53;6.47;;;22.60;1.00;;;;;;5038019;28;20215;-59
2023/06/24 07:26:30;;;;;;;9.10;5.67;;;22.40;1.00;;;;;;5034812;28;20686;-61
2023/06/24 07:29:00;;;;;;;8.60;5.77;;;22.60;1.00;;;;;;5020007;28;20335;-59
2023/06/24 07:31:35;;;;;;;7.87;5.80;;;22.70;1.00;;;;;;5020644;28;20217;-57
2023/06/24 07:34:03;;;;;;;7.37;5.63;;;23.00;1.00;;;;;;5031180;28;20755;-61
2023/06/24 07:36:29;;;;;;;6.80;5.13;;;22.80;1.00;;;;;;5029077;28;20298;-59
2023/06/24 07:38:56;;;;;;;8.52;6.18;;;23.40;1.00;;;;;;5030101;28;20992;-60
2023/06/24 07:41:23;;;;;;;5.93;4.27;;;24.20;1.00;;;;;;5031459;28;20215;-57
2023/06/24 07:43:50;;;;;;;6.83;5.27;;;25.10;1.00;;;;;;5017715;28;20231;-57
2023/06/24 07:46:17;;;;;;;6.90;5.23;;;24.90;1.00;;;;;;5023902;28;20207;-58
2023/06/24 07:48:44;;;;;;;6.80;4.90;;;26.10;1.00;;;;;;5030460;28;20239;-57
2023/06/24 07:51:11;;;;;;;5.90;4.77;;;26.50;1.00;;;;;;5036561;28;20215;-57
2023/06/24 07:53:38;;;;;;;6.03;4.17;;;26.40;1.00;;;;;;5020294;28;20604;-57
2023/06/24 07:56:05;;;;;;;7.88;4.57;;;26.70;99.90;;;;;;5036212;28;20196;-58
2023/06/24 07:58:33;;;;;;;6.93;5.20;;;26.30;99.90;;;;;;5039037;28;20200;-59
2023/06/24 08:01:00;;;;;;;6.47;4.82;;;25.90;99.90;;;;;;5036700;28;20262;-56
2023/06/24 08:03:27;;;;;;;7.47;5.38;;;25.90;99.90;;;;;;5032792;28;20265;-56
2023/06/24 08:05:56;;;;;;;5.45;4.05;;;26.20;99.90;;;;;;5038117;28;20202;-57
2023/06/24 08:08:23;;;;;;;5.00;4.50;;;26.70;99.90;;;;;;5018010;28;20208;-56
2023/06/24 08:10:50;;;;;;;6.07;4.10;;;26.80;99.90;;;;;;5037244;28;20605;-59
2023/06/24 08:13:17;;;;;;;5.65;3.72;;;27.10;99.90;;;;;;5035741;28;20200;-60
2023/06/24 08:15:44;;;;;;;5.47;3.80;;;27.90;99.90;;;;;;5037972;28;20256;-56
2023/06/24 08:18:12;;;;;;;4.63;3.40;;;28.50;99.90;;;;;;5036772;28;20224;-60
2023/06/24 08:20:38;;;;;;;3.53;3.20;;;27.60;99.90;;;;;;5039174;28;20204;-58
2023/06/24 08:23:05;;;;;;;4.47;4.07;;;27.70;99.90;;;;;;5038777;28;20204;-61
2023/06/24 08:25:32;;;;;;;6.60;3.30;;;28.40;99.90;;;;;;5035873;28;20199;-62
2023/06/24 08:28:00;;;;;;;5.82;3.38;;;28.00;99.90;;;;;;5038060;28;20244;-59
2023/06/24 08:30:27;;;;;;;5.07;3.75;;;27.90;99.90;;;;;;5036542;28;20207;-58
2023/06/24 08:32:55;;;;;;;7.20;4.10;;;27.80;99.90;;;;;;5035485;28;20203;-59
2023/06/24 08:35:22;;;;;;;7.93;3.92;;;28.10;99.90;;;;;;5029024;28;20305;-63
2023/06/24 08:37:49;;;;;;;4.28;3.63;;;28.70;99.90;;;;;;5025358;28;20208;-58
2023/06/24 08:40:17;;;;;;;3.92;3.28;;;28.30;99.90;;;;;;5017614;28;20208;-59
2023/06/24 08:42:44;;;;;;;5.40;3.40;;;28.80;99.90;;;;;;5034717;28;20591;-59
2023/06/24 08:45:11;;;;;;;6.28;3.50;;;28.30;99.90;;;;;;5036146;28;20410;-56
2023/06/24 08:47:39;;;;;;;4.32;2.95;;;27.60;99.90;;;;;;5037160;28;20208;-60
2023/06/24 08:50:13;;;;;;;4.30;2.92;;;28.60;99.90;;;;;;5030700;28;20252;-56
2023/06/24 08:52:44;;;;;;;4.57;3.17;;;27.70;99.90;;;;;;5037098;28;20219;-60
2023/06/24 08:55:16;;;;;;;3.93;2.50;;;27.30;99.90;;;;;;5027053;28;20243;-56
2023/06/24 08:57:43;;;;;;;4.60;3.50;;;28.10;99.90;;;;;;5036465;28;20208;-58
2023/06/24 09:00:10;;;;;;;3.27;2.60;;;28.00;99.90;;;;;;5038183;28;20243;-60
2023/06/24 09:02:38;;;;;;;6.37;2.70;;;27.70;99.90;;;;;;5034992;28;20234;-60
2023/06/24 09:05:07;;;;;;;3.40;3.10;;;28.20;99.90;;;;;;5032825;28;20208;-60
2023/06/24 09:07:34;;;;;;;4.43;3.63;;;29.00;99.90;;;;;;5035622;28;20203;-60
2023/06/24 09:10:01;;;;;;;4.50;3.38;;;27.90;99.90;;;;;;5037932;28;20357;-60
2023/06/24 09:12:32;;;;;;;4.15;2.90;;;28.90;99.90;;;;;;5040398;28;20200;-60
2023/06/24 09:14:59;;;;;;;3.47;2.97;;;30.10;99.90;;;;;;5040624;28;20523;-61
2023/06/24 09:17:27;;;;;;;5.05;3.28;;;29.80;99.90;;;;;;5039827;28;20584;-61
2023/06/24 09:20:04;;;;;;;3.65;3.10;;;29.00;99.90;;;;;;5038578;28;20331;-60
2023/06/24 09:22:31;;;;;;;3.38;2.67;;;28.10;99.90;;;;;;5042437;28;20199;-61
2023/06/24 09:25:01;;;;;;;6.55;4.30;;;29.20;99.90;;;;;;5041400;28;20651;-62
2023/06/24 09:27:32;;;;;;;5.20;3.85;;;29.90;99.90;;;;;;5039413;28;20762;-61
2023/06/24 09:29:59;;;;;;;3.95;3.03;;;29.30;99.90;;;;;;5040176;28;20230;-60
2023/06/24 09:32:30;;;;;;;4.22;3.55;;;28.80;99.90;;;;;;5020444;28;20208;-61
2023/06/24 09:34:57;;;;;;;3.22;2.88;;;28.40;99.90;;;;;;5038911;28;20225;-60
2023/06/24 09:37:30;;;;;;;2.90;2.63;;;28.80;99.90;;;;;;5040534;28;20764;-65
2023/06/24 09:39:58;;;;;;;2.88;2.58;;;28.90;99.90;;;;;;5039894;28;20228;-60
2023/06/24 09:42:25;;;;;;;3.83;2.78;;;29.70;99.90;;;;;;5036003;28;20204;-60
2023/06/24 09:44:55;;;;;;;3.92;2.80;;;29.00;99.90;;;;;;5040419;28;20234;-60
2023/06/24 09:47:25;;;;;;;7.35;3.50;;;27.90;99.90;;;;;;5037477;28;20210;-60
2023/06/24 09:49:53;;;;;;;4.00;2.42;;;28.50;99.90;;;;;;5039162;28;20222;-60
2023/06/24 09:52:21;;;;;;;4.85;2.95;;;28.40;99.90;;;;;;5036775;28;20258;-60
2023/06/24 09:54:51;;;;;;;4.60;2.88;;;29.10;99.90;;;;;;5034583;28;20201;-60
2023/06/24 09:57:28;;;;;;;3.58;2.58;;;28.40;99.90;;;;;;5039721;28;20599;-60
2023/06/24 09:59:56;;;;;;;2.95;2.60;;;28.00;99.90;;;;;;5037437;28;20615;-60
2023/06/24 10:02:23;;;;;;;3.30;3.00;;;28.10;99.90;;;;;;5037644;28;20940;-60
2023/06/24 10:04:51;;;;;;;4.32;3.53;;;27.70;99.90;;;;;;5038755;28;20215;-60
2023/06/24 10:07:19;;;;;;;4.53;2.70;;;27.50;99.90;;;;;;5038545;28;20208;-60
2023/06/24 10:09:46;;;;;;;5.00;2.90;;;27.70;99.90;;;;;;5040350;28;20212;-60
2023/06/24 10:12:13;;;;;;;4.63;2.55;;;28.00;99.90;;;;;;5039966;28;20213;-63
2023/06/24 10:14:40;;;;;;;5.13;2.45;;;28.60;99.90;;;;;;5040448;28;20256;-62
2023/06/24 10:17:07;;;;;;;4.32;3.17;;;28.00;99.90;;;;;;5039712;28;20204;-63
2023/06/24 10:19:41;;;;;;;6.35;2.70;;;27.80;99.90;;;;;;5038907;28;20232;-63
2023/06/24 10:22:12;;;;;;;3.90;2.85;;;28.30;99.90;;;;;;5024855;28;20607;-63
2023/06/24 10:24:41;;;;;;;4.45;3.50;;;28.30;99.90;;;;;;5037983;28;20203;-62
2023/06/24 10:27:13;;;;;;;4.82;3.05;;;27.90;99.90;;;;;;5039988;28;20236;-62
2023/06/24 10:29:56;;;;;;;5.10;3.63;;;28.20;99.90;;;;;;5038082;28;20692;-62
2023/06/24 10:32:23;;;;;;;5.47;3.30;;;27.80;99.90;;;;;;5022313;28;20222;-63
2023/06/24 10:34:57;;;;;;;4.28;2.83;;;28.10;99.90;;;;;;5034544;28;20188;-62
2023/06/24 10:37:25;;;;;;;3.13;2.72;;;28.20;99.90;;;;;;5039094;28;20236;-62
2023/06/24 10:39:54;;;;;;;6.45;2.97;;;28.30;99.90;;;;;;5037947;28;20291;-62
2023/06/24 10:42:42;;;;;;;5.45;3.13;;;29.40;99.90;;;;;;5037283;28;20599;-62
2023/06/24 10:45:09;;;;;;;5.50;4.97;;;29.30;99.90;;;;;;5036372;28;20625;-62
2023/06/24 10:47:41;;;;;;;8.27;4.13;;;28.20;99.90;;;;;;5039762;28;20208;-63
2023/06/24 10:50:12;;;;;;;6.68;3.67;;;28.60;99.90;;;;;;5037235;28;20239;-62
2023/06/24 10:52:41;;;;;;;6.75;3.50;;;29.40;99.90;;;;;;5039599;28;20902;-61
2023/06/24 10:55:08;;;;;;;4.80;3.75;;;29.40;99.90;;;;;;5038961;28;21773;-62
2023/06/24 10:57:35;;;;;;;5.20;4.70;;;28.40;99.90;;;;;;5033189;28;20950;-62
2023/06/24 11:00:03;;;;;;;6.15;4.10;;;27.60;99.90;;;;;;5017645;28;20208;-63
2023/06/24 11:02:30;;;;;;;5.63;4.97;;;27.60;99.90;;;;;;5022218;28;20692;-62
2023/06/24 11:05:00;;;;;;;4.90;3.83;;;28.00;99.90;;;;;;5034623;28;20208;-61
2023/06/24 11:07:30;;;;;;;4.93;4.00;;;28.90;99.90;;;;;;5039277;28;20211;-62
2023/06/24 11:09:59;;;;;;;4.75;3.80;;;28.90;99.90;;;;;;5036792;28;20216;-62
2023/06/24 11:12:27;;;;;;;4.75;4.15;;;28.60;99.90;;;;;;5035186;28;20668;-62
2023/06/24 11:14:59;;;;;;;5.85;4.40;;;29.20;99.90;;;;;;5017194;28;20246;-62
2023/06/24 11:17:27;;;;;;;5.45;4.70;;;28.80;99.90;;;;;;5039152;28;20294;-61
2023/06/24 11:19:55;;;;;;;5.00;4.15;;;29.20;99.90;;;;;;5036814;28;20311;-61
2023/06/24 11:22:23;;;;;;;5.30;4.50;;;29.60;99.90;;;;;;5038413;28;20215;-62
2023/06/24 11:24:50;;;;;;;5.03;3.03;;;29.20;99.90;;;;;;5038002;28;20212;-62
2023/06/24 11:27:27;;;;;;;5.13;4.03;;;30.10;99.90;;;;;;5037888;28;20317;-62
2023/06/24 11:29:55;;;;;;;4.80;4.22;;;30.70;99.90;;;;;;5036892;28;20231;-61
2023/06/24 11:32:22;;;;;;;4.05;3.63;;;30.60;99.90;;;;;;5038284;28;20687;-62
2023/06/24 11:34:49;;;;;;;3.83;3.15;;;30.70;99.90;;;;;;5022109;28;20200;-62
2023/06/24 11:37:19;;;;;;;4.05;3.70;;;30.70;99.90;;;;;;5004124;28;20203;-62
2023/06/24 11:40:07;;;;;;;3.55;3.25;;;30.70;99.90;;;;;;5020445;28;20308;-62
2023/06/24 11:42:41;;;;;;;6.00;3.58;;;30.30;99.90;;;;;;5036436;28;20663;-62
2023/06/24 11:45:10;;;;;;;4.20;3.45;;;30.50;99.90;;;;;;5037679;28;20211;-61
2023/06/24 11:47:41;;;;;;;4.45;3.45;;;31.50;99.90;;;;;;5036900;28;20661;-62
2023/06/24 11:50:09;;;;;;;4.20;3.17;;;32.30;99.90;;;;;;5035103;28;20308;-62
2023/06/24 11:52:49;;;;;;;4.20;3.38;;;32.30;99.90;;;;;;5037923;28;20235;-63
2023/06/24 11:55:24;;;;;;;3.15;2.85;;;33.10;99.90;;;;;;5038008;28;20207;-62
2023/06/24 11:58:04;;;;;;;4.55;3.30;;;33.20;99.90;;;;;;5018316;28;20379;-61
2023/06/24 12:00:46;;;;;;;4.20;2.90;;;33.00;99.90;;;;;;5035982;28;20200;-63
2023/06/24 12:03:13;;;;;;;4.07;3.53;;;33.10;99.90;;;;;;5034933;28;20219;-61
2023/06/24 12:05:44;;;;;;;4.47;3.15;;;32.50;99.90;;;;;;5034752;28;20247;-61
2023/06/24 12:08:15;;;;;;;4.32;3.58;;;32.30;99.90;;;;;;5035389;28;20204;-61
2023/06/24 12:10:44;;;;;;;4.55;3.20;;;31.20;99.90;;;;;;5038124;28;20245;-62
2023/06/24 12:13:11;;;;;;;3.85;2.95;;;30.50;99.90;;;;;;5035470;28;20268;-64
2023/06/24 12:15:38;;;;;;;5.03;3.22;;;31.30;99.90;;;;;;5037982;28;20239;-63
2023/06/24 12:18:06;;;;;;;4.50;3.10;;;31.30;99.90;;;;;;5021113;28;20204;-61
2023/06/24 12:20:34;;;;;;;3.47;2.95;;;31.90;99.90;;;;;;5036169;28;20264;-60
2023/06/24 12:23:04;;;;;;;6.18;3.10;;;32.70;99.90;;;;;;5039178;28;20208;-60
2023/06/24 12:25:32;;;;;;;3.80;3.20;;;31.00;99.90;;;;;;5024593;28;20219;-60
2023/06/24 12:27:59;;;;;;;4.68;3.30;;;31.60;99.90;;;;;;5034880;28;20270;-61
2023/06/24 12:30:27;;;;;;;3.38;2.80;;;30.50;99.90;;;;;;5016823;28;20239;-61
2023/06/24 12:32:55;;;;;;;4.30;3.08;;;31.50;99.90;;;;;;5036350;28;20207;-61
2023/06/24 12:35:25;;;;;;;3.80;3.40;;;32.60;99.90;;;;;;5036244;28;20212;-63
2023/06/24 12:37:52;;;;;;;7.20;3.80;;;33.30;99.90;;;;;;5021249;28;20213;-62
2023/06/24 12:40:19;;;;;;;3.75;2.97;;;31.80;99.90;;;;;;5039807;28;20726;-60
2023/06/24 12:42:46;;;;;;;6.07;3.70;;;31.60;99.90;;;;;;5034263;28;20281;-60
2023/06/24 12:45:13;;;;;;;3.78;3.38;;;31.10;99.90;;;;;;5037692;28;20209;-62
2023/06/24 12:47:40;;;;;;;4.95;3.60;;;30.90;99.90;;;;;;5022890;28;20222;-62
2023/06/24 12:50:08;;;;;;;3.88;3.47;;;30.60;99.90;;;;;;5040660;28;20687;-62
2023/06/24 12:52:37;;;;;;;4.25;3.03;;;31.10;99.90;;;;;;5041915;28;20201;-60
2023/06/24 12:55:06;;;;;;;4.47;3.45;;;31.90;99.90;;;;;;5038491;28;20839;-62
2023/06/24 12:57:34;;;;;;;6.05;3.67;;;31.40;99.90;;;;;;5039718;28;20285;-62